Hauptseite
METAR-TAF:

METAR-TAF

Flughäfen :

Frontone, Italien

Breite: 43-31N, Länge: 012-44E, Höhe: 570 m

Beobachtung

Neuester Wetterbericht von vor 1 Stunde und 7 Minuten, um 10:55 UTC
Wind 4 kt aus West/Nordwest
Temperatur 13°C
Luftfeuchtigkeit 88%
Luftdruck 1026 hPa
Sichtweite: 5000 m
Durchbrochene Bewölkung in der Höhe von 700 ft
Aufgelockert bewölkt in der Höhe von 1300 ft
feuchter Dunst

METAR: LIVF 141055Z 30004KT 5000 BR BKN007 SCT013 13/11 Q1026 RMK OVC MON INVIS VAL FOSCHIA VIS MIN 5000

Zeit: 13:02 (12:02 UTC)


TAF: fehlend

Wetterbeobachtungen und Prognosen von mehr als 4000 Flughäfen (METAR und TAF Bericht).

Die verfügbaren Stationen werden durch gelbe und rote Markierungen auf der Karte dargestellt.

Führen Sie die Maus auf sie, um den Namen der Station zu sehen.

Darauf klicken, um die Beobachtung von Wetterbeobachtungen und Prognosen zu sehen.

Um die Karte zu ändern : klicken Sie auf den grünen Tasten mit einem schwarzen Kreuz Zum Vergrößern, auf den grünen Button mit einem Gedankenstrich zu verkleinern, oder auf die grünen Pfeile für benachbarte Karten.


METAR-TAF: